Time;durP1;ratioP1;P1;durP2;ratioP2;P2;SDS_P1;SDS_P2;PMS_P1;PMS_P2;Temp;Humidity;BMP_temperature;BMP_pressure;BME280_temperature;BME280_humidity;BME280_pressure;Samples;Min_cycle;Max_cycle;Signal;HPM_P1;HPM_P2
2024/02/04 00:00:25;;;;;;;1005.37;919.97;;;9.70;99.90;;;;;;4955921;28;20466;-75
2024/02/04 00:02:52;;;;;;;1005.57;920.43;;;9.70;99.90;;;;;;4973233;28;20514;-75
2024/02/04 00:05:21;;;;;;;1013.60;927.23;;;9.70;99.90;;;;;;4982853;28;20453;-76
2024/02/04 00:07:48;;;;;;;978.60;893.73;;;9.70;99.90;;;;;;4971943;28;20473;-77
2024/02/04 00:10:17;;;;;;;1015.50;928.63;;;9.70;99.90;;;;;;4973168;28;20458;-76
2024/02/04 00:12:44;;;;;;;1018.83;931.30;;;9.60;99.90;;;;;;4967456;28;20485;-76
2024/02/04 00:15:11;;;;;;;1025.30;937.50;;;9.70;99.90;;;;;;4973196;28;20479;-76
2024/02/04 00:17:37;;;;;;;1042.60;954.40;;;9.70;99.90;;;;;;4953547;28;20822;-76
2024/02/04 00:20:06;;;;;;;1039.03;951.13;;;9.70;99.90;;;;;;4953260;28;20488;-76
2024/02/04 00:22:34;;;;;;;1036.20;948.33;;;9.70;99.90;;;;;;4952380;28;20563;-76
2024/02/04 00:25:04;;;;;;;1027.83;940.53;;;9.70;99.90;;;;;;4954096;28;20459;-76
2024/02/04 00:27:31;;;;;;;1029.97;941.20;;;9.70;99.90;;;;;;4972679;28;20814;-76
2024/02/04 00:29:58;;;;;;;1021.83;933.13;;;9.70;99.90;;;;;;4980879;28;20550;-76
2024/02/04 00:32:25;;;;;;;1031.67;942.57;;;9.60;99.90;;;;;;4973043;28;20557;-76
2024/02/04 00:34:52;;;;;;;1042.93;950.97;;;9.70;99.90;;;;;;4972782;28;20853;-77
2024/02/04 00:37:19;;;;;;;1045.83;954.10;;;9.70;99.90;;;;;;4974288;28;20742;-77
2024/02/04 00:39:47;;;;;;;1059.17;966.30;;;9.70;99.90;;;;;;4971656;28;20447;-77
2024/02/04 00:42:14;;;;;;;1057.13;964.90;;;9.70;99.90;;;;;;4972836;28;20483;-76
2024/02/04 00:44:41;;;;;;;1065.57;972.97;;;9.70;99.90;;;;;;4972461;28;20451;-76
2024/02/04 00:47:07;;;;;;;1025.63;935.57;;;9.70;99.90;;;;;;4972114;28;20451;-77
2024/02/04 00:49:34;;;;;;;1017.37;928.27;;;9.70;99.90;;;;;;4976384;28;20479;-76
2024/02/04 00:52:01;;;;;;;996.50;910.40;;;9.70;99.90;;;;;;4969458;28;20461;-77
2024/02/04 00:54:28;;;;;;;995.33;909.30;;;9.80;99.90;;;;;;4972890;28;20454;-77
2024/02/04 00:56:57;;;;;;;987.30;900.47;;;9.70;99.90;;;;;;4980059;28;20458;-76
2024/02/04 00:59:24;;;;;;;995.73;908.33;;;9.70;99.90;;;;;;4972723;28;20517;-76
2024/02/04 01:01:50;;;;;;;993.57;906.07;;;9.80;99.90;;;;;;4972660;28;20847;-76
2024/02/04 01:04:17;;;;;;;992.77;905.47;;;9.70;99.90;;;;;;4973107;28;20454;-76
2024/02/04 01:06:44;;;;;;;1030.77;942.67;;;9.80;99.90;;;;;;4976105;28;20450;-76
2024/02/04 01:09:11;;;;;;;1023.47;934.97;;;9.80;99.90;;;;;;4967402;28;20545;-77
2024/02/04 01:11:38;;;;;;;1025.50;937.70;;;9.80;99.90;;;;;;4972403;28;20455;-76
2024/02/04 01:14:07;;;;;;;1041.10;952.90;;;9.90;99.90;;;;;;4973575;28;20479;-76
2024/02/04 01:16:33;;;;;;;1020.17;931.57;;;9.80;99.90;;;;;;4953385;28;20856;-76
2024/02/04 01:19:00;;;;;;;1017.20;928.07;;;9.80;99.90;;;;;;4962170;28;20875;-77
2024/02/04 01:21:27;;;;;;;1021.80;933.60;;;9.80;99.90;;;;;;4978204;28;20454;-77
2024/02/04 01:23:54;;;;;;;1024.40;934.90;;;9.80;99.90;;;;;;4961781;28;20488;-77
2024/02/04 01:26:23;;;;;;;1052.13;962.57;;;9.80;99.90;;;;;;4978922;28;20465;-76
2024/02/04 01:28:50;;;;;;;1045.87;955.97;;;9.80;99.90;;;;;;4953475;28;20510;-77
2024/02/04 01:31:18;;;;;;;1047.40;957.10;;;9.80;99.90;;;;;;4973473;28;20461;-77
2024/02/04 01:33:45;;;;;;;1055.00;965.53;;;9.80;99.90;;;;;;4976092;28;20470;-77
2024/02/04 01:36:11;;;;;;;1052.73;962.83;;;9.80;99.90;;;;;;4975681;28;20486;-77
2024/02/04 01:38:38;;;;;;;1043.40;953.50;;;9.80;99.90;;;;;;4979424;28;20488;-77
2024/02/04 01:41:05;;;;;;;1051.87;962.70;;;9.80;99.90;;;;;;4971831;28;20466;-76
2024/02/04 01:43:32;;;;;;;1057.77;968.50;;;9.90;99.90;;;;;;4986896;28;20480;-76
2024/02/04 01:45:59;;;;;;;1064.43;975.27;;;9.90;99.90;;;;;;4966423;28;20553;-77
2024/02/04 01:48:27;;;;;;;1025.93;938.53;;;9.90;99.90;;;;;;4966275;28;20458;-76
2024/02/04 01:50:58;;;;;;;1032.50;944.90;;;9.90;99.90;;;;;;4981327;28;21021;-77
2024/02/04 01:53:26;;;;;;;1033.53;946.73;;;9.90;99.90;;;;;;4960902;28;20476;-77
2024/02/04 01:55:54;;;;;;;1042.37;954.77;;;9.90;99.90;;;;;;4980744;28;20482;-77
2024/02/04 01:58:22;;;;;;;1025.13;939.63;;;9.90;99.90;;;;;;4977104;28;20557;-77
2024/02/04 02:00:50;;;;;;;1020.40;934.70;;;9.90;99.90;;;;;;4986692;28;20446;-77
2024/02/04 02:03:18;;;;;;;1011.50;926.63;;;9.90;99.90;;;;;;4984928;28;20560;-77
2024/02/04 02:05:47;;;;;;;1029.87;944.43;;;9.90;99.90;;;;;;4956146;28;20464;-77
2024/02/04 02:08:14;;;;;;;992.93;909.47;;;9.90;99.90;;;;;;4964931;28;20486;-77
2024/02/04 02:10:42;;;;;;;996.90;912.80;;;10.00;99.90;;;;;;4970830;28;20459;-77
2024/02/04 02:13:17;;;;;;;995.33;910.67;;;9.90;99.90;;;;;;4975598;28;20478;-77
2024/02/04 02:15:49;;;;;;;1000.83;916.37;;;9.90;99.90;;;;;;4968658;28;20488;-77
2024/02/04 02:18:21;;;;;;;994.93;910.47;;;10.00;99.90;;;;;;4975226;28;20506;-77
2024/02/04 02:21:04;;;;;;;985.63;901.07;;;10.10;99.90;;;;;;4979890;28;20454;-77
2024/02/04 02:23:35;;;;;;;987.57;902.13;;;10.00;99.90;;;;;;4980989;28;20506;-77
2024/02/04 02:26:04;;;;;;;991.23;907.70;;;10.00;99.90;;;;;;4975463;28;20966;-77
2024/02/04 02:28:31;;;;;;;985.33;902.97;;;10.00;99.90;;;;;;4977058;28;20961;-77
2024/02/04 02:30:58;;;;;;;982.80;900.80;;;10.00;99.90;;;;;;4965400;28;20462;-77
2024/02/04 02:33:25;;;;;;;1032.30;947.50;;;10.00;99.90;;;;;;4973541;28;20475;-77
2024/02/04 02:35:57;;;;;;;1034.57;949.27;;;10.00;99.90;;;;;;4975329;28;20498;-77
2024/02/04 02:38:30;;;;;;;1049.40;962.80;;;10.00;99.90;;;;;;4969018;28;20455;-77
2024/02/04 02:41:02;;;;;;;1038.90;952.80;;;10.00;99.90;;;;;;4974912;28;20459;-77
2024/02/04 02:43:32;;;;;;;1048.63;961.57;;;10.00;99.90;;;;;;4971384;28;21030;-77
2024/02/04 02:45:59;;;;;;;1043.60;956.67;;;9.90;99.90;;;;;;4972843;28;20845;-77
2024/02/04 02:48:26;;;;;;;1023.87;939.40;;;10.00;99.90;;;;;;4975147;28;20846;-78
2024/02/04 02:50:54;;;;;;;1014.83;931.03;;;10.00;99.90;;;;;;4980539;28;20457;-77
2024/02/04 02:53:21;;;;;;;1014.67;929.93;;;10.00;99.90;;;;;;4983233;28;20473;-77
2024/02/04 02:55:48;;;;;;;1017.83;932.53;;;10.00;99.90;;;;;;4972297;28;20485;-77
2024/02/04 02:58:15;;;;;;;1025.30;938.97;;;10.00;99.90;;;;;;4976088;28;20467;-77
2024/02/04 03:00:45;;;;;;;1028.37;942.77;;;10.00;99.90;;;;;;4970116;28;20463;-77
2024/02/04 03:03:12;;;;;;;1011.87;927.17;;;10.00;99.90;;;;;;4964262;28;20871;-78
2024/02/04 03:05:38;;;;;;;1042.87;957.70;;;10.00;99.90;;;;;;4975125;28;20477;-77
2024/02/04 03:08:06;;;;;;;1045.13;958.87;;;10.00;99.90;;;;;;4981848;28;20453;-77
2024/02/04 03:10:33;;;;;;;1049.20;963.77;;;10.00;99.90;;;;;;4969350;28;20460;-77
2024/02/04 03:13:00;;;;;;;1041.57;956.67;;;10.00;99.90;;;;;;4979202;28;20482;-76
2024/02/04 03:15:27;;;;;;;1073.40;986.77;;;10.00;99.90;;;;;;4974303;28;20455;-76
2024/02/04 03:17:55;;;;;;;1047.23;959.77;;;10.00;99.90;;;;;;4974173;28;20455;-77
2024/02/04 03:20:22;;;;;;;1050.50;962.67;;;10.00;99.90;;;;;;4983305;28;20451;-77
2024/02/04 03:22:49;;;;;;;1058.97;972.00;;;10.00;99.90;;;;;;4966828;28;20482;-77
2024/02/04 03:25:17;;;;;;;1053.87;968.67;;;10.00;99.90;;;;;;4979300;28;20544;-77
2024/02/04 03:27:44;;;;;;;1046.40;962.20;;;10.00;99.90;;;;;;4954791;28;20463;-77
2024/02/04 03:30:11;;;;;;;1034.80;950.63;;;10.10;99.90;;;;;;4962380;28;20463;-76
2024/02/04 03:32:38;;;;;;;1021.50;938.13;;;10.10;99.90;;;;;;4978162;28;20487;-77
2024/02/04 03:35:08;;;;;;;1035.07;952.47;;;10.20;99.90;;;;;;4954628;28;20467;-77
2024/02/04 03:37:35;;;;;;;1036.90;954.67;;;10.20;99.90;;;;;;4965326;28;20489;-76
2024/02/04 03:40:01;;;;;;;1024.10;941.90;;;10.10;99.90;;;;;;4971711;28;20495;-77
2024/02/04 03:42:28;;;;;;;1013.97;933.83;;;10.10;99.90;;;;;;4973466;28;20478;-76
2024/02/04 03:44:55;;;;;;;1014.50;933.90;;;10.10;99.90;;;;;;4973761;28;20458;-76
2024/02/04 03:47:22;;;;;;;990.13;911.43;;;10.10;99.90;;;;;;4973383;28;20454;-76
2024/02/04 03:49:49;;;;;;;987.80;908.53;;;10.20;99.90;;;;;;4976232;28;20460;-77
2024/02/04 03:52:17;;;;;;;988.93;909.87;;;10.20;99.90;;;;;;4971601;28;20489;-76
2024/02/04 03:54:44;;;;;;;970.03;891.97;;;10.20;99.90;;;;;;4975344;28;20461;-77
2024/02/04 03:57:10;;;;;;;994.83;914.93;;;10.20;99.90;;;;;;4973663;28;20642;-76
2024/02/04 03:59:37;;;;;;;1004.03;924.13;;;10.20;99.90;;;;;;4959692;28;20462;-76
2024/02/04 04:02:04;;;;;;;979.37;900.40;;;10.20;99.90;;;;;;4972754;28;20450;-76
2024/02/04 04:04:31;;;;;;;972.57;893.57;;;10.30;99.90;;;;;;4981289;28;20554;-76
2024/02/04 04:06:58;;;;;;;997.40;918.90;;;10.30;99.90;;;;;;4972370;28;20465;-77
2024/02/04 04:09:26;;;;;;;967.70;890.10;;;10.30;99.90;;;;;;4972741;28;20553;-76
2024/02/04 04:11:53;;;;;;;965.73;889.10;;;10.30;99.90;;;;;;4972959;28;20833;-77
2024/02/04 04:14:20;;;;;;;969.37;893.47;;;10.30;99.90;;;;;;4974331;28;20461;-77
2024/02/04 04:16:46;;;;;;;958.47;881.97;;;10.40;99.90;;;;;;4971757;28;20494;-76
2024/02/04 04:19:12;;;;;;;946.07;870.47;;;10.40;99.90;;;;;;4972891;28;20954;-77
2024/02/04 04:21:40;;;;;;;950.97;875.47;;;10.40;99.90;;;;;;4977057;28;20469;-77
2024/02/04 04:24:07;;;;;;;961.37;883.80;;;10.40;99.90;;;;;;4961845;28;20226;-76
2024/02/04 04:26:35;;;;;;;978.87;901.47;;;10.30;99.90;;;;;;4978612;28;20477;-76
2024/02/04 04:29:02;;;;;;;949.03;872.50;;;10.30;99.90;;;;;;4978890;28;20451;-76
2024/02/04 04:31:29;;;;;;;939.93;865.43;;;10.30;99.90;;;;;;4975129;28;20458;-77
2024/02/04 04:33:56;;;;;;;947.00;872.17;;;10.40;99.90;;;;;;4970134;28;20478;-76
2024/02/04 04:36:23;;;;;;;962.97;887.20;;;10.30;99.90;;;;;;4969993;28;20479;-77
2024/02/04 04:38:50;;;;;;;972.33;896.00;;;10.30;99.90;;;;;;4953884;28;20466;-77
2024/02/04 04:41:17;;;;;;;932.67;858.10;;;10.40;99.90;;;;;;4970690;28;20451;-76
2024/02/04 04:43:45;;;;;;;942.13;867.77;;;10.40;99.90;;;;;;4965414;28;20478;-77
2024/02/04 04:46:12;;;;;;;969.40;894.90;;;10.40;99.90;;;;;;4971488;28;20443;-77
2024/02/04 04:48:39;;;;;;;989.73;915.77;;;10.30;99.90;;;;;;4960970;28;20482;-76
2024/02/04 04:51:08;;;;;;;950.47;877.33;;;10.30;99.90;;;;;;4968965;28;20842;-77
2024/02/04 04:53:35;;;;;;;960.13;886.13;;;10.30;99.90;;;;;;4968261;28;21017;-76
2024/02/04 04:56:02;;;;;;;951.47;877.57;;;10.30;99.90;;;;;;4969495;28;21013;-76
2024/02/04 04:58:29;;;;;;;960.60;886.30;;;10.30;99.90;;;;;;4966938;28;20464;-76
2024/02/04 05:00:57;;;;;;;948.17;875.17;;;10.30;99.90;;;;;;4967664;28;20460;-76
2024/02/04 05:03:24;;;;;;;948.17;874.97;;;10.40;99.90;;;;;;4964774;28;21013;-76
2024/02/04 05:05:51;;;;;;;956.27;883.37;;;10.30;99.90;;;;;;4973912;28;20457;-76
2024/02/04 05:08:17;;;;;;;946.23;872.57;;;10.30;99.90;;;;;;4976517;28;20942;-76
2024/02/04 05:10:44;;;;;;;952.53;878.57;;;10.30;99.90;;;;;;4980499;28;20870;-76
2024/02/04 05:13:11;;;;;;;941.57;867.90;;;10.30;99.90;;;;;;4974132;28;20883;-76
2024/02/04 05:15:38;;;;;;;948.40;875.30;;;10.20;99.90;;;;;;4964988;28;20473;-76
2024/02/04 05:18:06;;;;;;;950.47;877.13;;;10.30;99.90;;;;;;4967410;28;20475;-76
2024/02/04 05:20:33;;;;;;;935.87;861.47;;;10.30;99.90;;;;;;4975739;28;20466;-76
2024/02/04 05:23:00;;;;;;;930.03;857.13;;;10.30;99.90;;;;;;4976836;28;20466;-76
2024/02/04 05:25:27;;;;;;;943.53;870.83;;;10.30;99.90;;;;;;4975956;28;20842;-76
2024/02/04 05:27:54;;;;;;;962.03;889.97;;;10.30;99.90;;;;;;4980881;28;20445;-76
2024/02/04 05:30:21;;;;;;;942.47;869.17;;;10.30;99.90;;;;;;4975869;28;20464;-76
2024/02/04 05:32:47;;;;;;;954.13;880.07;;;10.30;99.90;;;;;;4974099;28;20477;-73
2024/02/04 05:35:15;;;;;;;942.33;869.60;;;10.40;99.90;;;;;;4969045;28;20452;-76
2024/02/04 05:37:42;;;;;;;964.27;890.37;;;10.40;99.90;;;;;;4976010;28;20489;-76
2024/02/04 05:40:09;;;;;;;956.83;882.27;;;10.30;99.90;;;;;;4970270;28;20451;-76
2024/02/04 05:42:36;;;;;;;954.30;879.40;;;10.30;99.90;;;;;;4975786;28;20489;-76
2024/02/04 05:45:05;;;;;;;964.10;888.17;;;10.30;99.90;;;;;;4974856;28;20474;-76
2024/02/04 05:47:32;;;;;;;969.73;895.07;;;10.30;99.90;;;;;;4975604;28;20458;-76
2024/02/04 05:49:58;;;;;;;969.83;895.17;;;10.30;99.90;;;;;;4975629;28;20459;-76
2024/02/04 05:52:27;;;;;;;948.37;875.20;;;10.30;99.90;;;;;;4975539;28;20475;-76
2024/02/04 05:54:53;;;;;;;947.67;874.00;;;10.30;99.90;;;;;;4975808;28;20465;-76
2024/02/04 05:57:21;;;;;;;961.03;885.73;;;10.30;99.90;;;;;;4975485;28;20479;-76
2024/02/04 05:59:48;;;;;;;964.80;888.80;;;10.30;99.90;;;;;;4975148;28;20525;-76
2024/02/04 06:02:15;;;;;;;957.80;882.10;;;10.30;99.90;;;;;;4975181;28;20476;-75
2024/02/04 06:04:41;;;;;;;957.80;884.07;;;10.30;99.90;;;;;;4975621;28;20466;-76
2024/02/04 06:07:08;;;;;;;958.27;883.67;;;10.30;99.90;;;;;;4975404;28;20931;-76
2024/02/04 06:09:37;;;;;;;959.10;884.90;;;10.30;99.90;;;;;;4978779;28;20461;-76
2024/02/04 06:12:06;;;;;;;943.47;869.67;;;10.30;99.90;;;;;;4964887;28;20462;-76
2024/02/04 06:14:34;;;;;;;933.70;860.53;;;10.30;99.90;;;;;;4956286;28;20460;-76
2024/02/04 06:17:01;;;;;;;914.70;841.10;;;10.30;99.90;;;;;;4955014;28;20509;-76
2024/02/04 06:19:27;;;;;;;924.70;851.93;;;10.40;99.90;;;;;;4974229;28;20458;-76
2024/02/04 06:21:54;;;;;;;940.97;866.37;;;10.30;99.90;;;;;;4974884;28;20470;-75
2024/02/04 06:24:21;;;;;;;923.50;851.00;;;10.30;99.90;;;;;;4973815;28;20455;-76
2024/02/04 06:26:49;;;;;;;931.83;858.63;;;10.30;99.90;;;;;;4968903;28;20458;-75
2024/02/04 06:29:16;;;;;;;923.70;851.00;;;10.30;99.90;;;;;;4982549;28;20461;-76
2024/02/04 06:31:46;;;;;;;916.67;844.67;;;10.40;99.90;;;;;;4955582;28;20459;-76
2024/02/04 06:34:13;;;;;;;939.70;867.77;;;10.40;99.90;;;;;;4966742;28;20471;-77
2024/02/04 06:36:44;;;;;;;912.30;840.23;;;10.30;99.90;;;;;;4974784;28;20867;-77
2024/02/04 06:39:11;;;;;;;937.43;863.57;;;10.30;99.90;;;;;;4976267;28;20941;-77
2024/02/04 06:41:37;;;;;;;912.57;838.37;;;10.30;99.90;;;;;;4974400;28;20455;-76
2024/02/04 06:44:06;;;;;;;978.77;899.97;;;10.20;99.90;;;;;;4978933;28;20469;-77
2024/02/04 06:46:33;;;;;;;970.47;892.73;;;10.20;99.90;;;;;;4977589;28;20447;-77
2024/02/04 06:49:01;;;;;;;972.70;894.03;;;10.10;99.90;;;;;;4976455;28;20458;-77
2024/02/04 06:51:27;;;;;;;968.40;889.50;;;10.10;99.90;;;;;;4967194;28;20487;-77
2024/02/04 06:53:54;;;;;;;973.17;895.77;;;10.10;99.90;;;;;;4974726;28;20479;-78
2024/02/04 06:56:21;;;;;;;978.63;900.13;;;10.10;99.90;;;;;;4976419;28;20865;-77
2024/02/04 06:58:48;;;;;;;966.97;888.40;;;10.10;99.90;;;;;;4976638;28;20493;-77
2024/02/04 07:01:16;;;;;;;964.87;887.20;;;10.10;99.90;;;;;;4961459;28;20546;-77
2024/02/04 07:03:43;;;;;;;961.37;881.30;;;10.20;99.90;;;;;;4968200;28;20484;-77
2024/02/04 07:06:10;;;;;;;977.90;895.83;;;10.10;99.90;;;;;;4969621;28;20993;-77
2024/02/04 07:08:36;;;;;;;992.47;910.97;;;10.10;99.90;;;;;;4965137;28;20533;-77
2024/02/04 07:11:04;;;;;;;1009.27;926.57;;;10.10;99.90;;;;;;4979640;28;20461;-77
2024/02/04 07:13:31;;;;;;;996.87;915.00;;;10.10;99.90;;;;;;4956631;28;20870;-77
2024/02/04 07:15:58;;;;;;;995.57;914.07;;;10.10;99.90;;;;;;4966312;28;20972;-77
2024/02/04 07:18:26;;;;;;;966.90;887.50;;;10.10;99.90;;;;;;4973651;28;20478;-77
2024/02/04 07:20:53;;;;;;;975.40;893.87;;;10.10;99.90;;;;;;4973684;28;20450;-77
2024/02/04 07:23:19;;;;;;;960.27;879.30;;;10.10;99.90;;;;;;4981094;28;20482;-77
2024/02/04 07:25:46;;;;;;;958.97;879.77;;;10.20;99.90;;;;;;4965701;28;20859;-77
2024/02/04 07:28:13;;;;;;;963.57;883.40;;;10.10;99.90;;;;;;4973686;28;20459;-77
2024/02/04 07:30:40;;;;;;;963.57;883.77;;;10.20;99.90;;;;;;4973770;28;20458;-77
2024/02/04 07:33:07;;;;;;;964.37;883.77;;;10.20;99.90;;;;;;4973850;28;20513;-77
2024/02/04 07:35:35;;;;;;;965.83;886.77;;;10.10;99.90;;;;;;4974032;28;20461;-77
2024/02/04 07:38:02;;;;;;;970.67;892.90;;;10.10;99.90;;;;;;4981045;28;20494;-77
2024/02/04 07:40:30;;;;;;;960.13;883.70;;;10.20;99.90;;;;;;4968874;28;20459;-77
2024/02/04 07:42:56;;;;;;;963.47;886.67;;;10.20;99.90;;;;;;4985128;28;20929;-77
2024/02/04 07:45:24;;;;;;;959.73;883.33;;;10.20;99.90;;;;;;4969936;28;20461;-77
2024/02/04 07:47:50;;;;;;;920.83;846.27;;;10.20;99.90;;;;;;4979303;28;20461;-77
2024/02/04 07:50:17;;;;;;;977.27;901.07;;;10.20;99.90;;;;;;4980013;28;20541;-77
2024/02/04 07:52:45;;;;;;;983.50;907.90;;;10.20;99.90;;;;;;4978067;28;20474;-77
2024/02/04 07:55:12;;;;;;;928.00;852.13;;;10.20;99.90;;;;;;4976667;28;20455;-77
2024/02/04 07:57:39;;;;;;;914.43;839.33;;;10.20;99.90;;;;;;4981360;28;20479;-77
2024/02/04 08:00:10;;;;;;;914.33;840.20;;;10.20;99.90;;;;;;4973002;28;20454;-77
2024/02/04 08:02:37;;;;;;;947.60;872.50;;;10.20;99.90;;;;;;4971893;28;20990;-77
2024/02/04 08:05:05;;;;;;;955.53;880.47;;;10.20;99.90;;;;;;4979455;28;20489;-77
2024/02/04 08:07:32;;;;;;;955.60;878.40;;;10.20;99.90;;;;;;4955153;28;20468;-77
2024/02/04 08:10:00;;;;;;;922.67;847.20;;;10.20;99.90;;;;;;4967921;28;20462;-77
2024/02/04 08:12:27;;;;;;;906.47;831.40;;;10.20;99.90;;;;;;4972811;28;20493;-77
2024/02/04 08:14:54;;;;;;;898.03;826.30;;;10.30;99.90;;;;;;4975528;28;20460;-77
2024/02/04 08:17:21;;;;;;;917.50;845.73;;;10.30;99.90;;;;;;4954847;28;20487;-77
2024/02/04 08:19:47;;;;;;;918.80;846.03;;;10.30;99.90;;;;;;4976255;28;20482;-77
2024/02/04 08:22:14;;;;;;;948.80;877.20;;;10.30;99.90;;;;;;4953582;28;20491;-77
2024/02/04 08:24:41;;;;;;;948.37;875.37;;;10.30;99.90;;;;;;4969978;28;20556;-77
2024/02/04 08:27:09;;;;;;;915.53;844.20;;;10.40;99.90;;;;;;4961107;28;20459;-76
2024/02/04 08:29:36;;;;;;;892.17;821.63;;;10.70;99.90;;;;;;4970786;28;20458;-76
2024/02/04 08:32:03;;;;;;;881.47;813.40;;;10.60;99.90;;;;;;4974370;28;20450;-76
2024/02/04 08:34:30;;;;;;;878.33;811.00;;;10.70;99.90;;;;;;4955206;28;20455;-77
2024/02/04 08:36:57;;;;;;;864.90;798.47;;;10.70;99.90;;;;;;4977902;28;20461;-77
2024/02/04 08:39:25;;;;;;;875.53;809.17;;;10.70;99.90;;;;;;4973872;28;20458;-77
2024/02/04 08:41:52;;;;;;;879.63;813.47;;;10.70;99.90;;;;;;4979211;28;20460;-77
2024/02/04 08:44:20;;;;;;;886.83;819.77;;;10.70;99.90;;;;;;4982332;28;20450;-76
2024/02/04 08:46:47;;;;;;;875.57;809.47;;;10.70;99.90;;;;;;4969090;28;20454;-76
2024/02/04 08:49:14;;;;;;;855.70;789.70;;;10.70;99.90;;;;;;4968422;28;20448;-77
2024/02/04 08:51:40;;;;;;;855.87;789.97;;;10.70;99.90;;;;;;4963241;28;20450;-76
2024/02/04 08:54:08;;;;;;;849.53;784.93;;;10.80;99.90;;;;;;4963208;28;20476;-75
2024/02/04 08:56:35;;;;;;;836.77;771.57;;;10.80;99.90;;;;;;4972510;28;20886;-76
2024/02/04 08:59:02;;;;;;;855.73;791.53;;;10.80;99.90;;;;;;4974748;28;20525;-76
2024/02/04 09:01:29;;;;;;;851.80;789.87;;;10.80;99.90;;;;;;4961778;28;20853;-77
2024/02/04 09:03:56;;;;;;;825.10;761.47;;;10.80;99.90;;;;;;4972222;28;20474;-76
2024/02/04 09:06:23;;;;;;;855.00;789.83;;;10.70;99.90;;;;;;4974379;28;20454;-76
2024/02/04 09:08:49;;;;;;;831.40;768.70;;;10.70;99.90;;;;;;4980196;28;20835;-76
2024/02/04 09:11:18;;;;;;;832.10;769.10;;;10.60;99.90;;;;;;4976915;28;20454;-76
2024/02/04 09:13:45;;;;;;;833.83;770.53;;;10.70;99.90;;;;;;4970257;28;20475;-75
2024/02/04 09:16:12;;;;;;;805.83;743.37;;;10.60;99.90;;;;;;4984073;28;20450;-77
2024/02/04 09:18:41;;;;;;;826.67;764.43;;;10.70;99.90;;;;;;4968562;28;20559;-75
2024/02/04 09:21:08;;;;;;;835.23;772.47;;;10.70;99.90;;;;;;4975844;28;20542;-76
2024/02/04 09:23:34;;;;;;;825.50;763.90;;;10.90;99.90;;;;;;4973918;28;20698;-76
2024/02/04 09:26:01;;;;;;;831.23;768.70;;;10.80;99.90;;;;;;4977118;28;20455;-76
2024/02/04 09:28:28;;;;;;;843.23;780.97;;;11.00;99.90;;;;;;4968781;28;20828;-77
2024/02/04 09:30:55;;;;;;;841.23;780.10;;;10.80;99.90;;;;;;4980855;28;20462;-77
2024/02/04 09:33:22;;;;;;;842.83;780.33;;;10.90;99.90;;;;;;4980632;28;20477;-77
2024/02/04 09:35:50;;;;;;;840.70;777.90;;;10.90;99.90;;;;;;4970408;28;20457;-77
2024/02/04 09:38:17;;;;;;;841.00;780.93;;;10.90;99.90;;;;;;4972690;28;20481;-76
2024/02/04 09:40:44;;;;;;;848.13;787.83;;;11.10;99.90;;;;;;4975141;28;20463;-76
2024/02/04 09:43:12;;;;;;;843.57;784.00;;;11.20;99.90;;;;;;4971767;28;20472;-76
2024/02/04 09:45:40;;;;;;;821.60;763.00;;;11.20;99.90;;;;;;4977714;28;20476;-77
2024/02/04 09:48:09;;;;;;;831.97;772.57;;;11.30;99.90;;;;;;4971041;28;20452;-77
2024/02/04 09:50:36;;;;;;;817.70;759.00;;;11.30;99.90;;;;;;4972389;28;21256;-76
2024/02/04 09:53:07;;;;;;;826.07;768.57;;;11.30;99.90;;;;;;4976629;28;20827;-77
2024/02/04 09:55:35;;;;;;;827.80;769.40;;;11.30;99.90;;;;;;4970099;28;20537;-76
2024/02/04 09:58:02;;;;;;;837.17;778.57;;;11.30;99.90;;;;;;4973601;28;20482;-77
2024/02/04 10:00:31;;;;;;;836.47;776.97;;;11.40;99.90;;;;;;4969390;28;20451;-77
2024/02/04 10:02:59;;;;;;;818.57;760.57;;;11.50;99.90;;;;;;4980938;28;20484;-77
2024/02/04 10:05:26;;;;;;;809.50;753.67;;;11.50;99.90;;;;;;4961836;28;20457;-76
2024/02/04 10:07:53;;;;;;;823.60;767.30;;;11.40;99.90;;;;;;4975089;28;20473;-76
2024/02/04 10:10:21;;;;;;;820.13;764.60;;;11.40;99.90;;;;;;4973318;28;20960;-76
2024/02/04 10:12:48;;;;;;;820.70;766.20;;;11.40;99.90;;;;;;4968329;28;20489;-77
2024/02/04 10:15:16;;;;;;;825.80;770.30;;;11.20;99.90;;;;;;4974353;28;20455;-76
2024/02/04 10:17:46;;;;;;;820.43;764.83;;;11.20;99.90;;;;;;4974547;28;20935;-76
2024/02/04 10:20:12;;;;;;;824.67;769.17;;;11.20;99.90;;;;;;4969827;28;20455;-76
2024/02/04 10:22:39;;;;;;;829.50;773.70;;;11.20;99.90;;;;;;4980879;28;20878;-76
2024/02/04 10:25:08;;;;;;;826.33;770.80;;;11.20;99.90;;;;;;4964280;28;20483;-76
2024/02/04 10:27:36;;;;;;;831.60;776.13;;;11.30;99.90;;;;;;4968110;28;20547;-76
2024/02/04 10:30:04;;;;;;;832.90;777.60;;;11.30;99.90;;;;;;4980537;28;20828;-76
2024/02/04 10:32:32;;;;;;;833.90;777.80;;;11.40;99.90;;;;;;4968173;28;20505;-76
2024/02/04 10:34:59;;;;;;;828.70;774.80;;;11.60;99.90;;;;;;4959796;28;20823;-76
2024/02/04 10:37:26;;;;;;;818.93;766.23;;;11.70;99.90;;;;;;4973606;28;20984;-76
2024/02/04 10:39:53;;;;;;;809.10;757.27;;;11.80;99.90;;;;;;4971743;28;20478;-75
2024/02/04 10:42:24;;;;;;;797.47;746.67;;;11.60;99.90;;;;;;4982054;28;20993;-75
2024/02/04 10:44:55;;;;;;;805.17;753.40;;;11.50;99.90;;;;;;4982796;28;20450;-75
2024/02/04 10:47:25;;;;;;;796.97;745.47;;;11.50;99.90;;;;;;4966526;28;20461;-75
2024/02/04 10:49:54;;;;;;;802.63;750.73;;;11.50;99.90;;;;;;4974291;28;20509;-74
2024/02/04 10:52:24;;;;;;;801.00;749.47;;;11.50;99.90;;;;;;4974266;28;20482;-75
2024/02/04 10:54:51;;;;;;;806.50;755.07;;;11.50;99.90;;;;;;4973267;28;21013;-74
2024/02/04 10:57:23;;;;;;;792.20;741.30;;;11.50;99.90;;;;;;4973812;28;20466;-74
2024/02/04 10:59:52;;;;;;;799.90;749.20;;;11.40;99.90;;;;;;4979214;28;20481;-75
2024/02/04 11:02:20;;;;;;;786.07;734.97;;;11.30;99.90;;;;;;4959728;28;20479;-75
2024/02/04 11:04:50;;;;;;;780.07;729.20;;;11.30;99.90;;;;;;4967382;28;20458;-74
2024/02/04 11:07:18;;;;;;;787.97;736.30;;;11.50;99.90;;;;;;4975093;28;20463;-75
2024/02/04 11:09:48;;;;;;;796.27;743.60;;;11.30;99.90;;;;;;4980959;28;20482;-74
2024/02/04 11:12:17;;;;;;;796.83;744.77;;;11.40;99.90;;;;;;4974816;28;20533;-75
2024/02/04 11:14:47;;;;;;;794.60;741.60;;;11.30;99.90;;;;;;4974574;28;20455;-75
2024/02/04 11:17:37;;;;;;;780.47;727.17;;;11.20;99.90;;;;;;4973968;28;20458;-75
2024/02/04 11:20:18;;;;;;;782.40;729.30;;;11.20;99.90;;;;;;4967820;28;20866;-75
2024/02/04 11:23:04;;;;;;;775.77;722.67;;;11.30;99.90;;;;;;4974004;28;20478;-75
2024/02/04 11:25:45;;;;;;;788.70;735.00;;;11.40;99.90;;;;;;4981967;28;20949;-75
2024/02/04 11:28:13;;;;;;;772.13;720.37;;;11.50;99.90;;;;;;4966860;28;20444;-75
2024/02/04 11:30:40;;;;;;;785.27;731.53;;;11.40;99.90;;;;;;4977485;28;20454;-76
2024/02/04 11:33:11;;;;;;;783.00;730.60;;;11.30;99.90;;;;;;4962235;28;20475;-76
2024/02/04 11:35:38;;;;;;;789.17;734.67;;;11.30;99.90;;;;;;4966052;28;20465;-76
2024/02/04 11:38:05;;;;;;;803.10;748.60;;;11.40;99.90;;;;;;4973754;28;20505;-75
2024/02/04 11:40:35;;;;;;;793.27;738.90;;;11.30;99.90;;;;;;4984265;28;20462;-76
2024/02/04 11:43:06;;;;;;;784.03;730.73;;;11.20;99.90;;;;;;4969888;28;20475;-75
2024/02/04 11:45:33;;;;;;;777.33;724.70;;;11.40;99.90;;;;;;4973746;28;20463;-76
2024/02/04 11:48:02;;;;;;;792.03;739.83;;;11.50;99.90;;;;;;4973290;28;20463;-75
2024/02/04 11:50:31;;;;;;;782.43;730.90;;;11.40;99.90;;;;;;4978010;28;20454;-75
2024/02/04 11:53:06;;;;;;;778.30;726.13;;;11.40;99.90;;;;;;4975101;28;20487;-75
2024/02/04 11:55:33;;;;;;;790.40;737.00;;;11.40;99.90;;;;;;4975486;28;20456;-75
2024/02/04 11:58:01;;;;;;;788.70;735.80;;;11.30;99.90;;;;;;4978332;28;20558;-76
2024/02/04 12:00:28;;;;;;;790.23;736.50;;;11.30;99.90;;;;;;4975194;28;20462;-76
2024/02/04 12:03:02;;;;;;;783.00;728.60;;;11.10;99.90;;;;;;4965041;28;20478;-77
2024/02/04 12:05:35;;;;;;;786.07;732.27;;;11.00;99.90;;;;;;4974488;28;21107;-77
2024/02/04 12:08:04;;;;;;;785.83;731.57;;;11.20;99.90;;;;;;4984615;28;20488;-77
2024/02/04 12:10:31;;;;;;;785.40;729.60;;;11.00;99.90;;;;;;4979346;28;20874;-76